Time;durP1;ratioP1;P1;durP2;ratioP2;P2;SDS_P1;SDS_P2;PMS_P1;PMS_P2;Temp;Humidity;BMP_temperature;BMP_pressure;BME280_temperature;BME280_humidity;BME280_pressure;Samples;Min_cycle;Max_cycle;Signal;HPM_P1;HPM_P2
2022/08/12 00:42:59;;;;;;;;;;;;;;;;;;6100571;23;7009;-63
2022/08/12 00:45:25;;;;;;;;;;;;;;;;;;6100637;23;6891;-63
2022/08/12 00:47:53;;;;;;;;;;;;;;;;;;6100716;23;7031;-63
2022/08/12 00:50:21;;;;;;;;;;;;;;;;;;6100757;23;7426;-63
2022/08/12 00:52:49;;;;;;;;;;;;;;;;;;6100674;23;6929;-63
2022/08/12 01:01:08;;;;;;;;;;;;;;;;;;6110235;23;6934;-62
2022/08/12 01:15:13;;;;;;;;;;;;;;;;;;6100271;23;6684;-63
2022/08/12 01:17:43;;;;;;;;;;;;;;;;;;6100452;23;7129;-62
2022/08/12 01:20:27;;;;;;;;;;;;;;;;;;6100176;23;7151;-62
2022/08/12 01:23:10;;;;;;;;;;;;;;;;;;6100321;23;7158;-62
2022/08/12 01:25:40;;;;;;;;;;;;;;;;;;6099831;23;7092;-62
2022/08/12 01:28:11;;;;;;;;;;;;;;;;;;6100182;23;7336;-62
2022/08/12 01:30:39;;;;;;;;;;;;;;;;;;6099845;23;7201;-62
2022/08/12 01:33:07;;;;;;;;;;;;;;;;;;6100115;23;7051;-62
2022/08/12 01:38:36;;;;;;;;;;;;;;;;;;6099825;23;6695;-62
2022/08/12 01:44:03;;;;;;;;;;;;;;;;;;6110953;23;6920;-62
2022/08/12 01:46:57;;;;;;;;;;;;;;;;;;6101048;23;7100;-62
2022/08/12 01:49:32;;;;;;;;;;;;;;;;;;6099926;23;6911;-63
2022/08/12 01:52:04;;;;;;;;;;;;;;;;;;6100977;23;6957;-62
2022/08/12 01:55:01;;;;;;;;;;;;;;;;;;6099736;23;6922;-62
2022/08/12 01:57:31;;;;;;;;;;;;;;;;;;6100244;23;7082;-62
2022/08/12 02:00:17;;;;;;;;;;;;;;;;;;6099910;23;7409;-62
2022/08/12 02:02:45;;;;;;;;;;;;;;;;;;6099536;23;7242;-62
2022/08/12 02:11:20;;;;;;;;;;;;;;;;;;6099603;23;6811;-62
2022/08/12 02:13:59;;;;;;;;;;;;;;;;;;6096238;23;7162;-62
2022/08/12 02:16:46;;;;;;;;;;;;;;;;;;6099230;23;7212;-62
2022/08/12 02:19:11;;;;;;;;;;;;;;;;;;6099715;23;7295;-62
2022/08/12 02:21:45;;;;;;;;;;;;;;;;;;6099733;23;7127;-62
2022/08/12 02:27:23;;;;;;;;;;;;;;;;;;6099592;23;6922;-62
2022/08/12 02:29:49;;;;;;;;;;;;;;;;;;6099219;23;6943;-62
2022/08/12 02:38:45;;;;;;;;;;;;;;;;;;6099476;23;6750;-62
2022/08/12 02:41:15;;;;;;;;;;;;;;;;;;6099689;23;7020;-62
2022/08/12 02:49:51;;;;;;;;;;;;;;;;;;6099687;23;6689;-62
2022/08/12 02:52:19;;;;;;;;;;;;;;;;;;6099570;23;7120;-62
2022/08/12 02:54:51;;;;;;;;;;;;;;;;;;6099486;23;7189;-62
2022/08/12 02:57:39;;;;;;;;;;;;;;;;;;6099093;23;8210;-62
2022/08/12 03:00:06;;;;;;;;;;;;;;;;;;6099361;23;7091;-62
2022/08/12 03:02:37;;;;;;;;;;;;;;;;;;6099026;23;8378;-62
2022/08/12 03:05:04;;;;;;;;;;;;;;;;;;6099430;23;7358;-62
2022/08/12 03:07:52;;;;;;;;;;;;;;;;;;6099496;23;7375;-63
2022/08/12 03:10:21;;;;;;;;;;;;;;;;;;6099814;23;7163;-62
2022/08/12 03:12:52;;;;;;;;;;;;;;;;;;6099047;23;8187;-62
2022/08/12 03:18:23;;;;;;;;;;;;;;;;;;6098867;23;6746;-62
2022/08/12 03:21:04;;;;;;;;;;;;;;;;;;6099359;23;7314;-62
2022/08/12 03:23:39;;;;;;;;;;;;;;;;;;6101317;23;7049;-62
2022/08/12 03:26:06;;;;;;;;;;;;;;;;;;6101486;23;7561;-62
2022/08/12 03:31:23;;;;;;;;;;;;;;;;;;6101551;23;6991;-63
2022/08/12 03:36:53;;;;;;;;;;;;;;;;;;6101061;23;6672;-62
2022/08/12 03:39:39;;;;;;;;;;;;;;;;;;6075357;23;8402;-62
2022/08/12 03:42:16;;;;;;;;;;;;;;;;;;6076844;23;7042;-62
2022/08/12 04:02:16;;;;;;;;;;;;;;;;;;6100956;23;6952;-62
2022/08/12 04:04:44;;;;;;;;;;;;;;;;;;6096912;23;7182;-62
2022/08/12 04:07:10;;;;;;;;;;;;;;;;;;6073982;23;8482;-62
2022/08/12 04:09:52;;;;;;;;;;;;;;;;;;6100264;23;7001;-62
2022/08/12 04:15:13;;;;;;;;;;;;;;;;;;6099645;23;6793;-62
2022/08/12 04:17:44;;;;;;;;;;;;;;;;;;6099989;23;7019;-62
2022/08/12 04:20:12;;;;;;;;;;;;;;;;;;6100303;23;7174;-62
2022/08/12 04:22:46;;;;;;;;;;;;;;;;;;6100342;23;7270;-62
2022/08/12 04:25:13;;;;;;;;;;;;;;;;;;6100351;23;7222;-62
2022/08/12 04:30:29;;;;;;;;;;;;;;;;;;6110304;23;6939;-62
2022/08/12 04:33:08;;;;;;;;;;;;;;;;;;6075088;23;8750;-62
2022/08/12 04:35:34;;;;;;;;;;;;;;;;;;6101017;23;7556;-62
2022/08/12 04:41:05;;;;;;;;;;;;;;;;;;6100494;23;7170;-62
2022/08/12 04:43:30;;;;;;;;;;;;;;;;;;6100040;23;7190;-62
2022/08/12 04:46:02;;;;;;;;;;;;;;;;;;6100442;23;7144;-62
2022/08/12 04:48:30;;;;;;;;;;;;;;;;;;6075131;23;7933;-62
2022/08/12 04:51:09;;;;;;;;;;;;;;;;;;6074771;23;8420;-62
2022/08/12 04:53:35;;;;;;;;;;;;;;;;;;6100316;23;7085;-62
2022/08/12 04:58:50;;;;;;;;;;;;;;;;;;6106123;23;6981;-62
2022/08/12 05:04:38;;;;;;;;;;;;;;;;;;6099887;23;6971;-62
2022/08/12 05:07:04;;;;;;;;;;;;;;;;;;6099785;23;7955;-62
2022/08/12 05:09:42;;;;;;;;;;;;;;;;;;6100260;23;7153;-62
2022/08/12 05:12:08;;;;;;;;;;;;;;;;;;6100199;23;7268;-62
2022/08/12 05:17:36;;;;;;;;;;;;;;;;;;6099279;23;6709;-62
2022/08/12 05:20:31;;;;;;;;;;;;;;;;;;6099965;23;6934;-62
2022/08/12 05:23:07;;;;;;;;;;;;;;;;;;6100465;23;6952;-62
2022/08/12 05:28:37;;;;;;;;;;;;;;;;;;6099834;23;6699;-63
2022/08/12 05:31:02;;;;;;;;;;;;;;;;;;6100987;23;7316;-63
2022/08/12 05:33:44;;;;;;;;;;;;;;;;;;6100195;23;6956;-63
2022/08/12 05:36:12;;;;;;;;;;;;;;;;;;6099767;23;6982;-63
2022/08/12 05:42:00;;;;;;;;;;;;;;;;;;6099839;23;6897;-63
2022/08/12 05:44:25;;;;;;;;;;;;;;;;;;6100431;23;7494;-63
2022/08/12 05:47:17;;;;;;;;;;;;;;;;;;6099284;23;7479;-63
2022/08/12 05:49:42;;;;;;;;;;;;;;;;;;6099267;23;7409;-62
2022/08/12 05:52:18;;;;;;;;;;;;;;;;;;6099226;23;7415;-63
2022/08/12 05:54:44;;;;;;;;;;;;;;;;;;6098351;23;7218;-63
2022/08/12 05:57:11;;;;;;;;;;;;;;;;;;6098216;23;7422;-63
2022/08/12 05:59:38;;;;;;;;;;;;;;;;;;6099553;23;7093;-63
2022/08/12 06:02:08;;;;;;;;;;;;;;;;;;6099505;23;7168;-63
2022/08/12 06:07:40;;;;;;;;;;;;;;;;;;6109878;23;6775;-62
2022/08/12 06:10:18;;;;;;;;;;;;;;;;;;6073946;23;7172;-63
2022/08/12 06:12:48;;;;;;;;;;;;;;;;;;6099681;23;7157;-63
2022/08/12 06:15:36;;;;;;;;;;;;;;;;;;6099149;23;7323;-63
2022/08/12 06:18:05;;;;;;;;;;;;;;;;;;6099614;23;7213;-63
2022/08/12 06:20:30;;;;;;;;;;;;;;;;;;6099053;23;6997;-63
2022/08/12 06:22:56;;;;;;;;;;;;;;;;;;6099736;23;6975;-63
2022/08/12 06:25:27;;;;;;;;;;;;;;;;;;6099364;23;7049;-63
2022/08/12 06:27:54;;;;;;;;;;;;;;;;;;6099965;23;6969;-63
2022/08/12 06:30:24;;;;;;;;;;;;;;;;;;6099611;23;6942;-63
2022/08/12 06:32:51;;;;;;;;;;;;;;;;;;6100114;23;6929;-63
2022/08/12 06:38:12;;;;;;;;;;;;;;;;;;6108331;23;7044;-63
2022/08/12 06:44:07;;;;;;;;;;;;;;;;;;6099111;23;6717;-63
2022/08/12 06:46:35;;;;;;;;;;;;;;;;;;6073612;23;8744;-63
2022/08/12 06:55:38;;;;;;;;;;;;;;;;;;6098947;23;7084;-63
2022/08/12 06:58:04;;;;;;;;;;;;;;;;;;6098724;23;7248;-63
2022/08/12 07:00:34;;;;;;;;;;;;;;;;;;6099382;23;7087;-63
2022/08/12 07:03:00;;;;;;;;;;;;;;;;;;6098994;23;7195;-63
2022/08/12 07:05:27;;;;;;;;;;;;;;;;;;6099171;23;7123;-63
2022/08/12 07:08:00;;;;;;;;;;;;;;;;;;6099086;23;7425;-63
2022/08/12 07:10:26;;;;;;;;;;;;;;;;;;6073689;23;7020;-63
2022/08/12 07:16:13;;;;;;;;;;;;;;;;;;6098757;23;6720;-63
2022/08/12 07:18:43;;;;;;;;;;;;;;;;;;6095957;23;7388;-63
2022/08/12 07:21:09;;;;;;;;;;;;;;;;;;6098322;23;7197;-63
2022/08/12 07:23:36;;;;;;;;;;;;;;;;;;6098228;23;7020;-63
2022/08/12 07:26:04;;;;;;;;;;;;;;;;;;6097451;23;7174;-63
2022/08/12 07:28:33;;;;;;;;;;;;;;;;;;6099036;23;7186;-63
2022/08/12 07:34:06;;;;;;;;;;;;;;;;;;6099450;23;6721;-63
2022/08/12 07:36:32;;;;;;;;;;;;;;;;;;6098816;23;7435;-63
2022/08/12 07:39:01;;;;;;;;;;;;;;;;;;6098820;23;6990;-63
2022/08/12 07:41:29;;;;;;;;;;;;;;;;;;6073989;23;7182;-63
2022/08/12 07:44:05;;;;;;;;;;;;;;;;;;6099100;23;7437;-63
2022/08/12 07:46:35;;;;;;;;;;;;;;;;;;6073407;23;8501;-63
2022/08/12 07:49:19;;;;;;;;;;;;;;;;;;6098976;23;7277;-63
2022/08/12 07:51:44;;;;;;;;;;;;;;;;;;6098983;23;7382;-63
2022/08/12 07:54:15;;;;;;;;;;;;;;;;;;6098660;23;7095;-63
2022/08/12 07:56:41;;;;;;;;;;;;;;;;;;6097122;23;7373;-63
2022/08/12 07:59:34;;;;;;;;;;;;;;;;;;6098467;23;7269;-63
2022/08/12 08:02:00;;;;;;;;;;;;;;;;;;6098679;23;7195;-63
2022/08/12 08:07:16;;;;;;;;;;;;;;;;;;6098141;23;7011;-63
2022/08/12 08:09:41;;;;;;;;;;;;;;;;;;6100116;23;6977;-63
2022/08/12 08:14:54;;;;;;;;;;;;;;;;;;6100213;23;7148;-63
2022/08/12 08:17:21;;;;;;;;;;;;;;;;;;6099930;23;7029;-66
2022/08/12 08:19:54;;;;;;;;;;;;;;;;;;6100470;23;7192;-67
2022/08/12 08:22:33;;;;;;;;;;;;;;;;;;6100303;23;7307;-65
2022/08/12 08:24:59;;;;;;;;;;;;;;;;;;6100351;23;7459;-68
2022/08/12 08:28:02;;;;;;;;;;;;;;;;;;6100174;23;8221;-65
2022/08/12 08:30:29;;;;;;;;;;;;;;;;;;6100462;23;7171;-65
2022/08/12 08:32:57;;;;;;;;;;;;;;;;;;6099417;23;7271;-70
2022/08/12 08:35:24;;;;;;;;;;;;;;;;;;6099622;23;7020;-63
2022/08/12 08:38:21;;;;;;;;;;;;;;;;;;6100125;23;6989;-63
2022/08/12 08:43:41;;;;;;;;;;;;;;;;;;6099727;23;6850;-63
2022/08/12 08:46:07;;;;;;;;;;;;;;;;;;6099623;23;6947;-63
2022/08/12 08:48:41;;;;;;;;;;;;;;;;;;6074602;23;7040;-63
2022/08/12 08:51:07;;;;;;;;;;;;;;;;;;6099796;23;7933;-63
2022/08/12 08:56:52;;;;;;;;;;;;;;;;;;6100582;23;6974;-61
2022/08/12 08:59:20;;;;;;;;;;;;;;;;;;6095367;23;7235;-62
2022/08/12 09:01:49;;;;;;;;;;;;;;;;;;6100216;23;7476;-62
2022/08/12 09:04:15;;;;;;;;;;;;;;;;;;6100479;23;7221;-62
2022/08/12 09:06:53;;;;;;;;;;;;;;;;;;6098981;23;7152;-62
2022/08/12 09:09:19;;;;;;;;;;;;;;;;;;6100130;23;7454;-62
2022/08/12 09:14:32;;;;;;;;;;;;;;;;;;6099847;23;6988;-61
2022/08/12 09:20:01;;;;;;;;;;;;;;;;;;6099299;23;6763;-61
2022/08/12 09:25:40;;;;;;;;;;;;;;;;;;6099442;23;7225;-62
2022/08/12 09:28:09;;;;;;;;;;;;;;;;;;6099888;23;7171;-62
2022/08/12 09:30:59;;;;;;;;;;;;;;;;;;6099565;23;7041;-61
2022/08/12 09:33:29;;;;;;;;;;;;;;;;;;6099944;23;7049;-62
2022/08/12 09:39:01;;;;;;;;;;;;;;;;;;6099370;23;6957;-62
2022/08/12 09:41:26;;;;;;;;;;;;;;;;;;6099895;23;7024;-61
2022/08/12 09:47:10;;;;;;;;;;;;;;;;;;6099439;23;6754;-61
2022/08/12 09:49:35;;;;;;;;;;;;;;;;;;6099642;23;6862;-62
2022/08/12 09:52:19;;;;;;;;;;;;;;;;;;6099678;23;7135;-61
2022/08/12 09:54:44;;;;;;;;;;;;;;;;;;6099408;23;7314;-62
2022/08/12 10:00:25;;;;;;;;;;;;;;;;;;6099384;23;6978;-61
2022/08/12 10:02:57;;;;;;;;;;;;;;;;;;6074231;23;7857;-62
2022/08/12 10:05:55;;;;;;;;;;;;;;;;;;6099274;23;7195;-62
2022/08/12 10:08:22;;;;;;;;;;;;;;;;;;6099651;23;7175;-62
2022/08/12 10:14:21;;;;;;;;;;;;;;;;;;6099266;23;6994;-62
2022/08/12 10:16:48;;;;;;;;;;;;;;;;;;6073677;23;7068;-62
2022/08/12 10:19:15;;;;;;;;;;;;;;;;;;6098340;23;7202;-62
2022/08/12 10:21:53;;;;;;;;;;;;;;;;;;6099421;23;7416;-62
2022/08/12 10:24:21;;;;;;;;;;;;;;;;;;6073575;23;8808;-62
2022/08/12 10:30:26;;;;;;;;;;;;;;;;;;6099295;23;6749;-62
2022/08/12 10:32:57;;;;;;;;;;;;;;;;;;6099187;23;7090;-61
2022/08/12 10:38:50;;;;;;;;;;;;;;;;;;6099316;23;6763;-62
2022/08/12 10:44:04;;;;;;;;;;;;;;;;;;6099004;23;7026;-62
2022/08/12 10:46:36;;;;;;;;;;;;;;;;;;6098303;23;7269;-62
2022/08/12 10:49:02;;;;;;;;;;;;;;;;;;6099200;23;7428;-62
2022/08/12 10:51:38;;;;;;;;;;;;;;;;;;6099335;23;7559;-62
2022/08/12 10:54:04;;;;;;;;;;;;;;;;;;6099093;23;7302;-62
2022/08/12 10:59:56;;;;;;;;;;;;;;;;;;6098814;23;7070;-62
2022/08/12 11:02:26;;;;;;;;;;;;;;;;;;6099342;23;7201;-63
2022/08/12 11:05:01;;;;;;;;;;;;;;;;;;6098900;23;7122;-62
2022/08/12 11:07:27;;;;;;;;;;;;;;;;;;6099118;23;7297;-61
2022/08/12 11:09:54;;;;;;;;;;;;;;;;;;6099087;23;7158;-62
2022/08/12 11:12:19;;;;;;;;;;;;;;;;;;6098317;23;7521;-61
2022/08/12 11:14:45;;;;;;;;;;;;;;;;;;6098301;23;6978;-61
2022/08/12 11:17:12;;;;;;;;;;;;;;;;;;6098706;23;7122;-62
2022/08/12 11:19:39;;;;;;;;;;;;;;;;;;6098137;23;7219;-61
2022/08/12 11:22:15;;;;;;;;;;;;;;;;;;6098130;23;7160;-61
2022/08/12 11:24:41;;;;;;;;;;;;;;;;;;6098946;23;7510;-61
2022/08/12 11:27:40;;;;;;;;;;;;;;;;;;6098724;23;7530;-62
2022/08/12 11:30:06;;;;;;;;;;;;;;;;;;6098828;23;7745;-62
2022/08/12 11:32:42;;;;;;;;;;;;;;;;;;6099207;23;7222;-61
2022/08/12 11:35:08;;;;;;;;;;;;;;;;;;6098874;23;7542;-61
2022/08/12 11:37:52;;;;;;;;;;;;;;;;;;6098567;23;6991;-61
2022/08/12 11:40:18;;;;;;;;;;;;;;;;;;6098486;23;7388;-62
2022/08/12 11:42:59;;;;;;;;;;;;;;;;;;6099250;23;7184;-61
2022/08/12 11:45:28;;;;;;;;;;;;;;;;;;6100231;23;8246;-62
2022/08/12 11:57:01;;;;;;;;;;;;;;;;;;6100862;23;7002;-62
2022/08/12 11:59:31;;;;;;;;;;;;;;;;;;6100741;23;7144;-62
2022/08/12 12:01:56;;;;;;;;;;;;;;;;;;6100840;23;7118;-62
2022/08/12 12:04:27;;;;;;;;;;;;;;;;;;6100901;23;7115;-61
2022/08/12 12:06:52;;;;;;;;;;;;;;;;;;6100418;23;7637;-62
2022/08/12 12:09:32;;;;;;;;;;;;;;;;;;6100541;23;7116;-62
2022/08/12 12:11:59;;;;;;;;;;;;;;;;;;6100740;23;7234;-62
2022/08/12 12:14:37;;;;;;;;;;;;;;;;;;6100651;23;7170;-62
2022/08/12 12:17:02;;;;;;;;;;;;;;;;;;6100239;23;7170;-62
2022/08/12 12:19:28;;;;;;;;;;;;;;;;;;6100025;23;7208;-62
2022/08/12 12:25:03;;;;;;;;;;;;;;;;;;6100062;23;6727;-62
2022/08/12 12:30:16;;;;;;;;;;;;;;;;;;6100944;23;7005;-62
2022/08/12 12:32:43;;;;;;;;;;;;;;;;;;6100431;23;7353;-62
2022/08/12 12:35:09;;;;;;;;;;;;;;;;;;6100170;23;7943;-62
2022/08/12 12:40:54;;;;;;;;;;;;;;;;;;6096319;23;6957;-62
2022/08/12 12:43:19;;;;;;;;;;;;;;;;;;6099954;23;7229;-62
2022/08/12 12:46:03;;;;;;;;;;;;;;;;;;6099542;23;6990;-61
2022/08/12 12:48:28;;;;;;;;;;;;;;;;;;6100521;23;7233;-62
2022/08/12 12:53:40;;;;;;;;;;;;;;;;;;6100174;23;6856;-62
2022/08/12 12:56:21;;;;;;;;;;;;;;;;;;6099368;23;7364;-62
2022/08/12 12:58:50;;;;;;;;;;;;;;;;;;6098738;23;7414;-62
2022/08/12 13:01:27;;;;;;;;;;;;;;;;;;6099836;23;7348;-62
2022/08/12 13:03:55;;;;;;;;;;;;;;;;;;6100136;23;7315;-62
2022/08/12 13:06:28;;;;;;;;;;;;;;;;;;6099441;23;7214;-62
2022/08/12 13:08:55;;;;;;;;;;;;;;;;;;6099198;23;7337;-62
2022/08/12 13:11:21;;;;;;;;;;;;;;;;;;6099981;23;7013;-62
2022/08/12 13:13:52;;;;;;;;;;;;;;;;;;6098706;23;7578;-52
2022/08/12 13:16:51;;;;;;;;;;;;;;;;;;6073878;23;7091;-52
2022/08/12 13:19:17;;;;;;;;;;;;;;;;;;6099410;23;7372;-51
2022/08/12 13:22:16;;;;;;;;;;;;;;;;;;6099833;23;7649;-50
2022/08/12 13:25:01;;;;;;;;;;;;;;;;;;6099696;23;7350;-53
2022/08/12 13:27:50;;;;;;;;;;;;;;;;;;6099121;23;7461;-49
2022/08/12 13:30:19;;;;;;;;;;;;;;;;;;6099652;23;7982;-49
2022/08/12 13:38:52;;;;;;;;;;;;;;;;;;6099353;23;6816;-51
2022/08/12 13:41:39;;;;;;;;;;;;;;;;;;6099019;23;7379;-54
2022/08/12 13:44:12;;;;;;;;;;;;;;;;;;6098588;23;7062;-50
2022/08/12 13:46:40;;;;;;;;;;;;;;;;;;6099389;23;7227;-51
2022/08/12 13:49:20;;;;;;;;;;;;;;;;;;6098589;23;7129;-50
2022/08/12 13:51:51;;;;;;;;;;;;;;;;;;6099869;23;7194;-51
2022/08/12 13:54:19;;;;;;;;;;;;;;;;;;6099392;23;7198;-52
2022/08/12 13:56:44;;;;;;;;;;;;;;;;;;6098054;23;6900;-68
2022/08/12 13:59:26;;;;;;;;;;;;;;;;;;6099350;23;7207;-69
2022/08/12 14:01:53;;;;;;;;;;;;;;;;;;6099666;23;7146;-68
2022/08/12 14:04:38;;;;;;;;;;;;;;;;;;6099346;23;7222;-67
2022/08/12 14:07:04;;;;;;;;;;;;;;;;;;6098518;23;7322;-67
2022/08/12 14:12:25;;;;;;;;;;;;;;;;;;6098854;23;7346;-67
2022/08/12 14:14:54;;;;;;;;;;;;;;;;;;6098527;23;7205;-67
2022/08/12 14:17:19;;;;;;;;;;;;;;;;;;6099741;23;7502;-67
2022/08/12 14:22:32;;;;;;;;;;;;;;;;;;6099392;23;6876;-66
2022/08/12 14:24:58;;;;;;;;;;;;;;;;;;6100047;23;7137;-66
2022/08/12 14:27:28;;;;;;;;;;;;;;;;;;6099018;23;7016;-70
2022/08/12 14:29:54;;;;;;;;;;;;;;;;;;6099089;23;7322;-71
2022/08/12 14:32:33;;;;;;;;;;;;;;;;;;6099360;23;7165;-71
2022/08/12 14:34:58;;;;;;;;;;;;;;;;;;6094332;23;7145;-68
2022/08/12 14:37:29;;;;;;;;;;;;;;;;;;6099179;23;7222;-70
2022/08/12 14:39:54;;;;;;;;;;;;;;;;;;6098868;23;7664;-70
2022/08/12 14:42:50;;;;;;;;;;;;;;;;;;6098954;23;7212;-70
2022/08/12 14:45:15;;;;;;;;;;;;;;;;;;6098976;23;7202;-70
2022/08/12 14:47:46;;;;;;;;;;;;;;;;;;6098661;23;7452;-70
2022/08/12 14:50:12;;;;;;;;;;;;;;;;;;6098564;23;7203;-70
2022/08/12 14:52:42;;;;;;;;;;;;;;;;;;6098542;23;7428;-70
2022/08/12 14:55:08;;;;;;;;;;;;;;;;;;6098299;23;7307;-70
2022/08/12 14:57:48;;;;;;;;;;;;;;;;;;6098174;23;7022;-70
2022/08/12 15:02:58;;;;;;;;;;;;;;;;;;6097249;23;6976;-70
2022/08/12 15:05:23;;;;;;;;;;;;;;;;;;6097694;23;7342;-70
2022/08/12 15:07:48;;;;;;;;;;;;;;;;;;6098273;23;7205;-70
2022/08/12 15:10:16;;;;;;;;;;;;;;;;;;6093878;23;7031;-70
2022/08/12 15:12:42;;;;;;;;;;;;;;;;;;6097913;23;7395;-70
2022/08/12 15:15:08;;;;;;;;;;;;;;;;;;6097559;23;7207;-70
2022/08/12 15:17:35;;;;;;;;;;;;;;;;;;6096244;23;7181;-70
2022/08/12 15:20:01;;;;;;;;;;;;;;;;;;6097375;23;7260;-70
2022/08/12 15:22:27;;;;;;;;;;;;;;;;;;6097890;23;7218;-71
2022/08/12 15:24:53;;;;;;;;;;;;;;;;;;6097687;23;7020;-70
2022/08/12 15:27:18;;;;;;;;;;;;;;;;;;6097725;23;7241;-70
2022/08/12 15:29:44;;;;;;;;;;;;;;;;;;6072279;23;7249;-70
2022/08/12 15:32:11;;;;;;;;;;;;;;;;;;6099027;23;7090;-70
2022/08/12 15:34:37;;;;;;;;;;;;;;;;;;6098293;23;7547;-70
2022/08/12 15:37:04;;;;;;;;;;;;;;;;;;6097896;23;7120;-70
2022/08/12 15:39:29;;;;;;;;;;;;;;;;;;6097728;23;7495;-70
2022/08/12 15:41:55;;;;;;;;;;;;;;;;;;6096895;23;7128;-70
2022/08/12 15:44:20;;;;;;;;;;;;;;;;;;6097956;23;7023;-70
2022/08/12 15:46:46;;;;;;;;;;;;;;;;;;6098260;23;7448;-69
2022/08/12 15:49:11;;;;;;;;;;;;;;;;;;6096775;23;7580;-71
2022/08/12 15:51:37;;;;;;;;;;;;;;;;;;6098520;23;7284;-70
2022/08/12 15:54:06;;;;;;;;;;;;;;;;;;6098430;23;6989;-70
2022/08/12 15:56:35;;;;;;;;;;;;;;;;;;6097740;23;7524;-70
2022/08/12 15:59:01;;;;;;;;;;;;;;;;;;6098212;23;7227;-70
2022/08/12 16:01:29;;;;;;;;;;;;;;;;;;6098004;23;7249;-70
2022/08/12 16:03:56;;;;;;;;;;;;;;;;;;6097684;23;7037;-70
2022/08/12 16:06:23;;;;;;;;;;;;;;;;;;6098399;23;7075;-70
2022/08/12 16:08:50;;;;;;;;;;;;;;;;;;6097930;23;7116;-70
2022/08/12 16:11:16;;;;;;;;;;;;;;;;;;6097565;23;6915;-70
2022/08/12 16:13:42;;;;;;;;;;;;;;;;;;6098572;23;7199;-70
2022/08/12 16:16:09;;;;;;;;;;;;;;;;;;6098174;23;7221;-71
2022/08/12 16:18:36;;;;;;;;;;;;;;;;;;6097980;23;7131;-70
2022/08/12 16:21:02;;;;;;;;;;;;;;;;;;6098085;23;7488;-71
2022/08/12 16:23:27;;;;;;;;;;;;;;;;;;6098462;23;7306;-70
2022/08/12 16:25:53;;;;;;;;;;;;;;;;;;6098020;23;7178;-70
2022/08/12 16:28:21;;;;;;;;;;;;;;;;;;6098525;23;7229;-70
2022/08/12 16:30:47;;;;;;;;;;;;;;;;;;6098996;23;7456;-70
2022/08/12 16:33:15;;;;;;;;;;;;;;;;;;6099886;23;7169;-70
2022/08/12 16:35:46;;;;;;;;;;;;;;;;;;6099792;23;7297;-70
2022/08/12 16:38:14;;;;;;;;;;;;;;;;;;6100090;23;6879;-69
2022/08/12 16:40:43;;;;;;;;;;;;;;;;;;6099026;23;7492;-69
2022/08/12 16:43:27;;;;;;;;;;;;;;;;;;6100068;23;7235;-69
2022/08/12 16:45:58;;;;;;;;;;;;;;;;;;6099904;23;7024;-70
2022/08/12 16:48:24;;;;;;;;;;;;;;;;;;6099577;23;7269;-70
2022/08/12 16:50:54;;;;;;;;;;;;;;;;;;6099628;23;7312;-70
2022/08/12 16:53:21;;;;;;;;;;;;;;;;;;6099928;23;7205;-70
2022/08/12 16:55:49;;;;;;;;;;;;;;;;;;6099393;23;7136;-70
2022/08/12 16:58:15;;;;;;;;;;;;;;;;;;6099500;23;7143;-70
2022/08/12 17:00:40;;;;;;;;;;;;;;;;;;6099302;23;7987;-70
2022/08/12 17:03:11;;;;;;;;;;;;;;;;;;6099458;23;7287;-70
2022/08/12 17:05:36;;;;;;;;;;;;;;;;;;6099907;23;7285;-70
2022/08/12 17:08:04;;;;;;;;;;;;;;;;;;6099848;23;7232;-70
2022/08/12 17:10:31;;;;;;;;;;;;;;;;;;6098932;23;7084;-70
2022/08/12 17:12:57;;;;;;;;;;;;;;;;;;6099718;23;7046;-70
2022/08/12 17:15:22;;;;;;;;;;;;;;;;;;6099648;23;7027;-70
2022/08/12 17:17:49;;;;;;;;;;;;;;;;;;6073260;23;8482;-70
2022/08/12 17:20:14;;;;;;;;;;;;;;;;;;6099261;23;7148;-70
2022/08/12 17:22:41;;;;;;;;;;;;;;;;;;6099405;23;7361;-69
2022/08/12 17:25:09;;;;;;;;;;;;;;;;;;6099449;23;7273;-69
2022/08/12 17:27:45;;;;;;;;;;;;;;;;;;6099407;23;7246;-70
2022/08/12 17:30:13;;;;;;;;;;;;;;;;;;6099587;23;7227;-70
2022/08/12 17:32:43;;;;;;;;;;;;;;;;;;6099280;23;7468;-70
2022/08/12 17:35:26;;;;;;;;;;;;;;;;;;6099737;23;7357;-71
2022/08/12 17:37:53;;;;;;;;;;;;;;;;;;6099718;23;7182;-70
2022/08/12 17:40:26;;;;;;;;;;;;;;;;;;6099001;23;7112;-70
2022/08/12 17:42:57;;;;;;;;;;;;;;;;;;6097822;23;7290;-70
2022/08/12 17:45:23;;;;;;;;;;;;;;;;;;6087747;23;7255;-70
2022/08/12 17:47:51;;;;;;;;;;;;;;;;;;6072600;23;7081;-73
2022/08/12 17:50:16;;;;;;;;;;;;;;;;;;6096988;23;7061;-72
2022/08/12 17:52:43;;;;;;;;;;;;;;;;;;6098204;23;7275;-73
2022/08/12 17:55:10;;;;;;;;;;;;;;;;;;6097279;23;7292;-73
2022/08/12 17:57:39;;;;;;;;;;;;;;;;;;6097390;23;7172;-72
2022/08/12 18:00:11;;;;;;;;;;;;;;;;;;6097069;23;7297;-72
2022/08/12 18:02:37;;;;;;;;;;;;;;;;;;6098762;23;7332;-73
2022/08/12 18:05:03;;;;;;;;;;;;;;;;;;6097494;23;7232;-72
2022/08/12 18:07:29;;;;;;;;;;;;;;;;;;6096836;23;8762;-72
2022/08/12 18:09:56;;;;;;;;;;;;;;;;;;6097935;23;7132;-73
2022/08/12 18:12:39;;;;;;;;;;;;;;;;;;6099327;23;7236;-73
2022/08/12 18:15:09;;;;;;;;;;;;;;;;;;6098825;23;6935;-72
2022/08/12 18:17:36;;;;;;;;;;;;;;;;;;6099082;23;7633;-72
2022/08/12 18:20:04;;;;;;;;;;;;;;;;;;6098723;23;7077;-73
2022/08/12 18:22:30;;;;;;;;;;;;;;;;;;6098779;23;7236;-73
2022/08/12 18:24:56;;;;;;;;;;;;;;;;;;6099076;23;7431;-73
2022/08/12 18:27:22;;;;;;;;;;;;;;;;;;6099096;23;7003;-73
2022/08/12 18:29:54;;;;;;;;;;;;;;;;;;6098678;23;7198;-73
2022/08/12 18:32:23;;;;;;;;;;;;;;;;;;6098985;23;7347;-73
2022/08/12 18:34:51;;;;;;;;;;;;;;;;;;6099260;23;7430;-73
2022/08/12 18:37:19;;;;;;;;;;;;;;;;;;6098728;23;7065;-72
2022/08/12 18:42:30;;;;;;;;;;;;;;;;;;6098544;23;6833;-73
2022/08/12 18:45:09;;;;;;;;;;;;;;;;;;6099256;23;7059;-73
2022/08/12 18:47:37;;;;;;;;;;;;;;;;;;6099447;23;7010;-72
2022/08/12 18:50:04;;;;;;;;;;;;;;;;;;6099357;23;7109;-73
2022/08/12 18:52:32;;;;;;;;;;;;;;;;;;6097952;23;7909;-73
2022/08/12 18:55:00;;;;;;;;;;;;;;;;;;6099165;23;7208;-73
2022/08/12 18:57:29;;;;;;;;;;;;;;;;;;6099080;23;7121;-73
2022/08/12 18:59:59;;;;;;;;;;;;;;;;;;6098314;23;7166;-73
2022/08/12 19:02:25;;;;;;;;;;;;;;;;;;6099132;23;7207;-73
2022/08/12 19:04:51;;;;;;;;;;;;;;;;;;6099034;23;7130;-73
2022/08/12 19:07:18;;;;;;;;;;;;;;;;;;6098686;23;7138;-73
2022/08/12 19:09:45;;;;;;;;;;;;;;;;;;6098804;23;7179;-72
2022/08/12 19:14:59;;;;;;;;;;;;;;;;;;6098438;23;6829;-72
2022/08/12 19:17:26;;;;;;;;;;;;;;;;;;6098920;23;7143;-72
2022/08/12 19:19:53;;;;;;;;;;;;;;;;;;6098817;23;7406;-69
2022/08/12 19:22:23;;;;;;;;;;;;;;;;;;6098215;23;7614;-69
2022/08/12 19:27:36;;;;;;;;;;;;;;;;;;6098958;23;7070;-69
2022/08/12 19:30:04;;;;;;;;;;;;;;;;;;6098313;23;7049;-69
2022/08/12 19:32:30;;;;;;;;;;;;;;;;;;6099084;23;7137;-73
2022/08/12 19:35:03;;;;;;;;;;;;;;;;;;6100598;23;7123;-72
2022/08/12 19:37:38;;;;;;;;;;;;;;;;;;6098449;23;7274;-72
2022/08/12 19:48:55;;;;;;;;;;;;;;;;;;6099308;23;6899;-71
2022/08/12 19:51:40;;;;;;;;;;;;;;;;;;6098910;23;7134;-71
2022/08/12 19:54:07;;;;;;;;;;;;;;;;;;6099320;23;7219;-71
2022/08/12 19:56:33;;;;;;;;;;;;;;;;;;6099276;23;7150;-72
2022/08/12 20:01:52;;;;;;;;;;;;;;;;;;6075768;23;6966;-78
2022/08/12 20:04:18;;;;;;;;;;;;;;;;;;6063488;23;9120;-74
2022/08/12 20:06:46;;;;;;;;;;;;;;;;;;6063993;23;6917;-77
2022/08/12 20:09:14;;;;;;;;;;;;;;;;;;6064448;23;8819;-79
2022/08/12 20:11:43;;;;;;;;;;;;;;;;;;6065134;23;8417;-79
2022/08/12 20:14:17;;;;;;;;;;;;;;;;;;6065260;23;8760;-79
2022/08/12 20:16:44;;;;;;;;;;;;;;;;;;6065486;23;9383;-77
2022/08/12 20:19:09;;;;;;;;;;;;;;;;;;6065565;23;7167;-77
2022/08/12 20:21:39;;;;;;;;;;;;;;;;;;6065364;23;8376;-78
2022/08/12 20:24:10;;;;;;;;;;;;;;;;;;6066060;23;7092;-78
2022/08/12 20:26:36;;;;;;;;;;;;;;;;;;6065131;23;9225;-77
2022/08/12 20:29:03;;;;;;;;;;;;;;;;;;6064907;23;7166;-78
2022/08/12 20:31:30;;;;;;;;;;;;;;;;;;6065099;23;7162;-76
2022/08/12 20:33:56;;;;;;;;;;;;;;;;;;6065192;23;8422;-78
2022/08/12 20:36:23;;;;;;;;;;;;;;;;;;6065222;23;8266;-77
2022/08/12 20:38:52;;;;;;;;;;;;;;;;;;6065322;23;8823;-77
2022/08/12 20:41:22;;;;;;;;;;;;;;;;;;6065579;23;7158;-77
2022/08/12 20:43:49;;;;;;;;;;;;;;;;;;6064906;23;8966;-79
2022/08/12 20:46:17;;;;;;;;;;;;;;;;;;6064872;23;8457;-78
2022/08/12 20:48:43;;;;;;;;;;;;;;;;;;6065202;23;8712;-79
2022/08/12 20:51:12;;;;;;;;;;;;;;;;;;6065070;23;8796;-77
2022/08/12 20:53:49;;;;;;;;;;;;;;;;;;6065194;23;7222;-78
2022/08/12 20:56:22;;;;;;;;;;;;;;;;;;6065354;23;8827;-78
2022/08/12 20:58:52;;;;;;;;;;;;;;;;;;6064906;23;8443;-77
2022/08/12 21:01:22;;;;;;;;;;;;;;;;;;6064571;23;7244;-78
2022/08/12 21:09:17;;;;;;;;;;;;;;;;;;6042423;23;6801;-77
2022/08/12 21:11:45;;;;;;;;;;;;;;;;;;6065494;23;8372;-78
2022/08/12 21:14:13;;;;;;;;;;;;;;;;;;6065553;23;8406;-78
2022/08/12 21:16:40;;;;;;;;;;;;;;;;;;6064888;23;8374;-77
2022/08/12 21:19:06;;;;;;;;;;;;;;;;;;6065350;23;8437;-77
2022/08/12 21:21:32;;;;;;;;;;;;;;;;;;6065452;23;8730;-77
2022/08/12 21:23:58;;;;;;;;;;;;;;;;;;6065045;23;8390;-79
2022/08/12 21:26:25;;;;;;;;;;;;;;;;;;6065711;23;6980;-78
2022/08/12 21:28:54;;;;;;;;;;;;;;;;;;6066638;23;7504;-79
2022/08/12 21:31:20;;;;;;;;;;;;;;;;;;6065335;23;7425;-79
2022/08/12 21:33:50;;;;;;;;;;;;;;;;;;6065249;23;8499;-79
2022/08/12 21:36:16;;;;;;;;;;;;;;;;;;6065081;23;7242;-79
2022/08/12 21:38:42;;;;;;;;;;;;;;;;;;6065146;23;8406;-78
2022/08/12 21:41:07;;;;;;;;;;;;;;;;;;6065229;23;8461;-79
2022/08/12 21:43:34;;;;;;;;;;;;;;;;;;6066035;23;8478;-78
2022/08/12 21:46:00;;;;;;;;;;;;;;;;;;6064904;23;8485;-79
2022/08/12 21:48:25;;;;;;;;;;;;;;;;;;6066433;23;8689;-78
2022/08/12 21:50:51;;;;;;;;;;;;;;;;;;6064946;23;8469;-79